Reading, United Kingdom
Current Conditions -  °F | °C
As of 8:50 AM on Wednesday 26 Nov 2014 (Local Time) from EGUB Reporting Station
Drizzle Drizzle  
Wind Chill: 45°   Ceiling: 500
Heat Index: 45°   Visibility: 0.75mi
Dew Point: 45°   Wind: 2mph
Humidity: 100%   Direction: 80°E
Pressure: 29.88"   Gusts: NA
Location:  51.45°N, 0.99°W
Report Text: EGUB 260850Z 08002KT 1200 -DZ OVC005 07/07 Q1012 AMB TEMPO 2000 BR YLO2
Loading
Personal Weather Stations






























Interactive Weather Map New forecast layout! Learn more

10-Day Weather Forecast

Advertisements
Track Severe Weather on mobile